sensor_id;sensor_type;location;lat;lon;timestamp;pressure;altitude;pressure_sealevel;temperature;humidity
77685;BME280;66844;46.092;18.268;2023-04-25T00:00:05;98335.53;;;9.89;92.55
77685;BME280;66844;46.092;18.268;2023-04-25T00:00:37;98335.28;;;9.92;92.81
77685;BME280;66844;46.092;18.268;2023-04-25T00:01:07;98330.06;;;9.90;92.54
77685;BME280;66844;46.092;18.268;2023-04-25T00:01:39;98324.16;;;9.87;92.40
77685;BME280;66844;46.092;18.268;2023-04-25T00:02:10;98335.53;;;9.89;92.40
77685;BME280;66844;46.092;18.268;2023-04-25T00:02:40;98325.97;;;9.86;92.63
77685;BME280;66844;46.092;18.268;2023-04-25T00:03:11;98325.97;;;9.86;92.59
77685;BME280;66844;46.092;18.268;2023-04-25T00:03:42;98327.56;;;9.89;92.74
77685;BME280;66844;46.092;18.268;2023-04-25T00:04:13;98323.09;;;9.89;92.61
77685;BME280;66844;46.092;18.268;2023-04-25T00:04:43;98324.66;;;9.92;92.72
77685;BME280;66844;46.092;18.268;2023-04-25T00:05:15;98327.56;;;9.89;92.58
77685;BME280;66844;46.092;18.268;2023-04-25T00:05:46;98332.13;;;9.87;92.59
77685;BME280;66844;46.092;18.268;2023-04-25T00:06:18;98329.25;;;9.90;92.74
77685;BME280;66844;46.092;18.268;2023-04-25T00:06:48;98329.34;;;9.88;92.70
77685;BME280;66844;46.092;18.268;2023-04-25T00:07:19;98329.34;;;9.88;92.47
77685;BME280;66844;46.092;18.268;2023-04-25T00:07:50;98327.66;;;9.87;92.74
77685;BME280;66844;46.092;18.268;2023-04-25T00:08:21;98328.41;;;9.89;92.58
77685;BME280;66844;46.092;18.268;2023-04-25T00:08:52;98330.69;;;9.94;92.72
77685;BME280;66844;46.092;18.268;2023-04-25T00:09:23;98336.00;;;9.94;92.22
77685;BME280;66844;46.092;18.268;2023-04-25T00:09:54;98328.28;;;9.91;92.26
77685;BME280;66844;46.092;18.268;2023-04-25T00:10:25;98327.66;;;9.87;92.00
77685;BME280;66844;46.092;18.268;2023-04-25T00:10:59;98324.91;;;9.89;92.16
77685;BME280;66844;46.092;18.268;2023-04-25T00:11:29;98328.19;;;9.92;92.63
77685;BME280;66844;46.092;18.268;2023-04-25T00:12:01;98335.28;;;9.92;92.48
77685;BME280;66844;46.092;18.268;2023-04-25T00:12:32;98328.19;;;9.92;92.41
77685;BME280;66844;46.092;18.268;2023-04-25T00:13:03;98326.38;;;9.93;92.42
77685;BME280;66844;46.092;18.268;2023-04-25T00:13:35;98328.19;;;9.92;92.50
77685;BME280;66844;46.092;18.268;2023-04-25T00:14:05;98326.47;;;9.91;92.70
77685;BME280;66844;46.092;18.268;2023-04-25T00:14:37;98333.50;;;9.92;92.39
77685;BME280;66844;46.092;18.268;2023-04-25T00:15:08;98331.78;;;9.91;92.72
77685;BME280;66844;46.092;18.268;2023-04-25T00:15:40;98327.41;;;9.90;92.26
77685;BME280;66844;46.092;18.268;2023-04-25T00:16:11;98326.81;;;9.87;92.86
77685;BME280;66844;46.092;18.268;2023-04-25T00:16:44;98328.41;;;9.89;92.45
77685;BME280;66844;46.092;18.268;2023-04-25T00:17:16;98322.97;;;9.91;92.23
77685;BME280;66844;46.092;18.268;2023-04-25T00:17:49;98322.97;;;9.91;92.24
77685;BME280;66844;46.092;18.268;2023-04-25T00:18:23;98324.28;;;9.85;91.85
77685;BME280;66844;46.092;18.268;2023-04-25T00:18:54;98339.97;;;9.88;92.10
77685;BME280;66844;46.092;18.268;2023-04-25T00:19:24;98325.97;;;9.86;91.97
77685;BME280;66844;46.092;18.268;2023-04-25T00:19:57;98327.66;;;9.87;91.62
77685;BME280;66844;46.092;18.268;2023-04-25T00:20:28;98326.94;;;9.85;91.91
77685;BME280;66844;46.092;18.268;2023-04-25T00:21:00;98337.56;;;9.85;91.72
77685;BME280;66844;46.092;18.268;2023-04-25T00:21:30;98329.47;;;9.87;91.86
77685;BME280;66844;46.092;18.268;2023-04-25T00:22:04;98330.31;;;9.87;91.99
77685;BME280;66844;46.092;18.268;2023-04-25T00:22:35;98334.78;;;9.87;91.92
77685;BME280;66844;46.092;18.268;2023-04-25T00:23:07;98343.19;;;9.81;91.74
77685;BME280;66844;46.092;18.268;2023-04-25T00:23:38;98326.31;;;9.82;91.79
77685;BME280;66844;46.092;18.268;2023-04-25T00:24:09;98326.31;;;9.82;91.17
77685;BME280;66844;46.092;18.268;2023-04-25T00:24:39;98332.47;;;9.82;91.29
77685;BME280;66844;46.092;18.268;2023-04-25T00:25:10;98321.94;;;9.81;91.36
77685;BME280;66844;46.092;18.268;2023-04-25T00:25:41;98327.88;;;9.84;91.10
77685;BME280;66844;46.092;18.268;2023-04-25T00:26:12;98332.56;;;9.81;91.06
77685;BME280;66844;46.092;18.268;2023-04-25T00:26:42;98329.69;;;9.84;90.96
77685;BME280;66844;46.092;18.268;2023-04-25T00:27:13;98319.28;;;9.81;91.34
77685;BME280;66844;46.092;18.268;2023-04-25T00:27:44;98329.19;;;9.79;91.53
77685;BME280;66844;46.092;18.268;2023-04-25T00:28:15;98309.97;;;9.75;91.14
77685;BME280;66844;46.092;18.268;2023-04-25T00:28:46;98331.00;;;9.78;91.14
77685;BME280;66844;46.092;18.268;2023-04-25T00:29:17;98326.63;;;9.77;91.61
77685;BME280;66844;46.092;18.268;2023-04-25T00:29:48;98331.94;;;9.77;91.75
77685;BME280;66844;46.092;18.268;2023-04-25T00:30:18;98340.00;;;9.75;91.82
77685;BME280;66844;46.092;18.268;2023-04-25T00:30:49;98328.34;;;9.78;91.43
77685;BME280;66844;46.092;18.268;2023-04-25T00:31:20;98334.72;;;9.75;90.91
77685;BME280;66844;46.092;18.268;2023-04-25T00:31:51;98323.25;;;9.75;91.40
77685;BME280;66844;46.092;18.268;2023-04-25T00:32:21;98339.69;;;9.80;91.23
77685;BME280;66844;46.092;18.268;2023-04-25T00:32:52;98331.63;;;9.82;91.50
77685;BME280;66844;46.092;18.268;2023-04-25T00:33:23;98326.53;;;9.79;91.47
77685;BME280;66844;46.092;18.268;2023-04-25T00:33:54;98340.88;;;9.76;91.05
77685;BME280;66844;46.092;18.268;2023-04-25T00:34:25;98331.09;;;9.77;91.13
77685;BME280;66844;46.092;18.268;2023-04-25T00:34:55;98332.06;;;9.75;90.76
77685;BME280;66844;46.092;18.268;2023-04-25T00:35:27;98336.41;;;9.77;90.91
77685;BME280;66844;46.092;18.268;2023-04-25T00:35:58;98324.94;;;9.76;91.01
77685;BME280;66844;46.092;18.268;2023-04-25T00:36:29;98333.88;;;9.75;91.29
77685;BME280;66844;46.092;18.268;2023-04-25T00:37:00;98330.47;;;9.73;91.45
77685;BME280;66844;46.092;18.268;2023-04-25T00:37:32;98331.31;;;9.73;91.11
77685;BME280;66844;46.092;18.268;2023-04-25T00:38:03;98328.78;;;9.72;91.22
77685;BME280;66844;46.092;18.268;2023-04-25T00:38:33;98337.09;;;9.67;91.41
77685;BME280;66844;46.092;18.268;2023-04-25T00:39:04;98335.25;;;9.68;91.20
77685;BME280;66844;46.092;18.268;2023-04-25T00:39:37;98339.53;;;9.70;91.52
77685;BME280;66844;46.092;18.268;2023-04-25T00:40:08;98336.00;;;9.70;91.42
77685;BME280;66844;46.092;18.268;2023-04-25T00:40:39;98339.00;;;9.65;91.54
77685;BME280;66844;46.092;18.268;2023-04-25T00:41:10;98327.53;;;9.65;91.49
77685;BME280;66844;46.092;18.268;2023-04-25T00:41:41;98332.72;;;9.66;91.19
77685;BME280;66844;46.092;18.268;2023-04-25T00:42:12;98333.59;;;9.67;91.19
77685;BME280;66844;46.092;18.268;2023-04-25T00:42:43;98333.47;;;9.68;91.21
77685;BME280;66844;46.092;18.268;2023-04-25T00:43:15;98343.84;;;9.71;91.22
77685;BME280;66844;46.092;18.268;2023-04-25T00:43:48;98337.72;;;9.71;90.77
77685;BME280;66844;46.092;18.268;2023-04-25T00:44:20;98333.34;;;9.70;91.12
77685;BME280;66844;46.092;18.268;2023-04-25T00:44:52;98334.31;;;9.69;90.39
77685;BME280;66844;46.092;18.268;2023-04-25T00:45:27;98324.53;;;9.69;90.47
77685;BME280;66844;46.092;18.268;2023-04-25T00:46:00;98337.72;;;9.71;90.22
77685;BME280;66844;46.092;18.268;2023-04-25T00:46:31;98335.78;;;9.73;90.81
77685;BME280;66844;46.092;18.268;2023-04-25T00:47:02;98330.56;;;9.71;90.50
77685;BME280;66844;46.092;18.268;2023-04-25T00:47:35;98334.22;;;9.70;90.64
77685;BME280;66844;46.092;18.268;2023-04-25T00:48:06;98330.06;;;9.66;90.79
77685;BME280;66844;46.092;18.268;2023-04-25T00:48:37;98335.25;;;9.68;90.75
77685;BME280;66844;46.092;18.268;2023-04-25T00:49:08;98337.09;;;9.67;90.83
77685;BME280;66844;46.092;18.268;2023-04-25T00:49:38;98325.41;;;9.70;90.79
77685;BME280;66844;46.092;18.268;2023-04-25T00:50:11;98335.16;;;9.69;91.19
77685;BME280;66844;46.092;18.268;2023-04-25T00:50:43;98340.81;;;9.65;91.02
77685;BME280;66844;46.092;18.268;2023-04-25T00:51:21;98330.31;;;9.63;90.90
77685;BME280;66844;46.092;18.268;2023-04-25T00:51:52;98332.22;;;9.61;90.74
77685;BME280;66844;46.092;18.268;2023-04-25T00:52:22;98339.22;;;9.62;90.74
77685;BME280;66844;46.092;18.268;2023-04-25T00:52:53;98338.28;;;9.63;90.72
77685;BME280;66844;46.092;18.268;2023-04-25T00:53:27;98337.19;;;9.66;90.86
77685;BME280;66844;46.092;18.268;2023-04-25T00:53:58;98331.16;;;9.64;91.04
77685;BME280;66844;46.092;18.268;2023-04-25T00:54:29;98333.06;;;9.62;90.42
77685;BME280;66844;46.092;18.268;2023-04-25T00:55:01;98334.78;;;9.63;90.98
77685;BME280;66844;46.092;18.268;2023-04-25T00:55:32;98334.88;;;9.61;91.07
77685;BME280;66844;46.092;18.268;2023-04-25T00:56:05;98334.88;;;9.61;91.36
77685;BME280;66844;46.092;18.268;2023-04-25T00:56:36;98328.81;;;9.59;91.51
77685;BME280;66844;46.092;18.268;2023-04-25T00:57:06;98319.25;;;9.57;91.42
77685;BME280;66844;46.092;18.268;2023-04-25T00:57:38;98340.41;;;9.58;91.46
77685;BME280;66844;46.092;18.268;2023-04-25T00:58:09;98335.00;;;9.60;91.46
77685;BME280;66844;46.092;18.268;2023-04-25T00:58:40;98322.75;;;9.57;91.22
77685;BME280;66844;46.092;18.268;2023-04-25T00:59:13;98330.63;;;9.59;91.34
77685;BME280;66844;46.092;18.268;2023-04-25T00:59:45;98335.09;;;9.58;91.26
77685;BME280;66844;46.092;18.268;2023-04-25T01:00:17;98334.13;;;9.59;91.31
77685;BME280;66844;46.092;18.268;2023-04-25T01:00:50;98340.50;;;9.57;91.44
77685;BME280;66844;46.092;18.268;2023-04-25T01:01:22;98337.75;;;9.58;91.45
77685;BME280;66844;46.092;18.268;2023-04-25T01:01:53;98335.09;;;9.58;91.42
77685;BME280;66844;46.092;18.268;2023-04-25T01:02:24;98333.28;;;9.59;91.48
77685;BME280;66844;46.092;18.268;2023-04-25T01:02:56;98341.34;;;9.57;91.58
77685;BME280;66844;46.092;18.268;2023-04-25T01:03:27;98337.22;;;9.53;91.89
77685;BME280;66844;46.092;18.268;2023-04-25T01:04:00;98332.53;;;9.57;91.82
77685;BME280;66844;46.092;18.268;2023-04-25T01:04:31;98339.44;;;9.59;91.42
77685;BME280;66844;46.092;18.268;2023-04-25T01:05:03;98324.47;;;9.58;91.50
77685;BME280;66844;46.092;18.268;2023-04-25T01:05:33;98334.38;;;9.56;91.24
77685;BME280;66844;46.092;18.268;2023-04-25T01:06:04;98335.31;;;9.55;91.18
77685;BME280;66844;46.092;18.268;2023-04-25T01:06:35;98340.50;;;9.57;91.35
77685;BME280;66844;46.092;18.268;2023-04-25T01:07:06;98334.13;;;9.59;91.22
77685;BME280;66844;46.092;18.268;2023-04-25T01:07:37;98338.59;;;9.59;91.10
77685;BME280;66844;46.092;18.268;2023-04-25T01:08:08;98344.84;;;9.58;91.42
77685;BME280;66844;46.092;18.268;2023-04-25T01:08:39;98348.47;;;9.57;91.29
77685;BME280;66844;46.092;18.268;2023-04-25T01:09:10;98327.34;;;9.55;91.34
77685;BME280;66844;46.092;18.268;2023-04-25T01:09:40;98335.41;;;9.54;91.20
77685;BME280;66844;46.092;18.268;2023-04-25T01:10:11;98339.69;;;9.56;91.38
77685;BME280;66844;46.092;18.268;2023-04-25T01:10:42;98344.84;;;9.58;91.27
77685;BME280;66844;46.092;18.268;2023-04-25T01:11:13;98324.69;;;9.55;91.37
77685;BME280;66844;46.092;18.268;2023-04-25T01:11:44;98334.56;;;9.53;90.72
77685;BME280;66844;46.092;18.268;2023-04-25T01:12:14;98347.63;;;9.56;90.80
77685;BME280;66844;46.092;18.268;2023-04-25T01:12:45;98341.47;;;9.56;91.11
77685;BME280;66844;46.092;18.268;2023-04-25T01:13:16;98337.22;;;9.53;91.21
77685;BME280;66844;46.092;18.268;2023-04-25T01:13:47;98335.41;;;9.54;91.13
77685;BME280;66844;46.092;18.268;2023-04-25T01:14:18;98345.19;;;9.53;91.08
77685;BME280;66844;46.092;18.268;2023-04-25T01:14:48;98330.97;;;9.54;90.85
77685;BME280;66844;46.092;18.268;2023-04-25T01:15:19;98330.09;;;9.54;90.86
77685;BME280;66844;46.092;18.268;2023-04-25T01:15:50;98310.88;;;9.50;90.64
77685;BME280;66844;46.092;18.268;2023-04-25T01:16:21;98336.38;;;9.53;90.83
77685;BME280;66844;46.092;18.268;2023-04-25T01:16:54;98341.56;;;9.54;90.22
77685;BME280;66844;46.092;18.268;2023-04-25T01:17:25;98332.03;;;9.52;90.35
77685;BME280;66844;46.092;18.268;2023-04-25T01:17:56;98346.88;;;9.54;90.69
77685;BME280;66844;46.092;18.268;2023-04-25T01:18:28;98345.94;;;9.55;91.04
77685;BME280;66844;46.092;18.268;2023-04-25T01:18:59;98341.47;;;9.56;90.86
77685;BME280;66844;46.092;18.268;2023-04-25T01:19:30;98340.84;;;9.52;90.62
77685;BME280;66844;46.092;18.268;2023-04-25T01:20:04;98346.88;;;9.54;90.75
77685;BME280;66844;46.092;18.268;2023-04-25T01:20:37;98325.88;;;9.51;90.72
77685;BME280;66844;46.092;18.268;2023-04-25T01:21:09;98331.19;;;9.51;90.04
77685;BME280;66844;46.092;18.268;2023-04-25T01:21:40;98353.16;;;9.53;89.93
77685;BME280;66844;46.092;18.268;2023-04-25T01:22:11;98337.97;;;9.55;88.64
77685;BME280;66844;46.092;18.268;2023-04-25T01:22:42;98329.06;;;9.56;89.18
77685;BME280;66844;46.092;18.268;2023-04-25T01:23:16;98336.03;;;9.57;89.53
77685;BME280;66844;46.092;18.268;2023-04-25T01:23:47;98331.59;;;9.58;89.90
77685;BME280;66844;46.092;18.268;2023-04-25T01:24:18;98344.00;;;9.57;89.82
77685;BME280;66844;46.092;18.268;2023-04-25T01:24:49;98337.97;;;9.55;90.15
77685;BME280;66844;46.092;18.268;2023-04-25T01:25:20;98337.97;;;9.55;90.25
77685;BME280;66844;46.092;18.268;2023-04-25T01:25:51;98343.16;;;9.57;90.37
77685;BME280;66844;46.092;18.268;2023-04-25T01:26:22;98328.31;;;9.54;90.03
77685;BME280;66844;46.092;18.268;2023-04-25T01:26:54;98328.63;;;9.50;89.69
77685;BME280;66844;46.092;18.268;2023-04-25T01:27:27;98351.25;;;9.55;89.86
77685;BME280;66844;46.092;18.268;2023-04-25T01:27:58;98336.25;;;9.54;89.88
77685;BME280;66844;46.092;18.268;2023-04-25T01:28:29;98341.47;;;9.56;90.12
77685;BME280;66844;46.092;18.268;2023-04-25T01:29:00;98340.00;;;9.52;89.69
77685;BME280;66844;46.092;18.268;2023-04-25T01:29:32;98340.84;;;9.52;90.04
77685;BME280;66844;46.092;18.268;2023-04-25T01:30:03;98346.78;;;9.56;90.02
77685;BME280;66844;46.092;18.268;2023-04-25T01:30:35;98328.53;;;9.51;90.16
77685;BME280;66844;46.092;18.268;2023-04-25T01:31:06;98340.94;;;9.51;90.29
77685;BME280;66844;46.092;18.268;2023-04-25T01:31:37;98340.00;;;9.52;89.50
77685;BME280;66844;46.092;18.268;2023-04-25T01:32:09;98344.47;;;9.51;90.05
77685;BME280;66844;46.092;18.268;2023-04-25T01:32:41;98345.19;;;9.53;90.19
77685;BME280;66844;46.092;18.268;2023-04-25T01:33:14;98347.84;;;9.53;90.23
77685;BME280;66844;46.092;18.268;2023-04-25T01:33:47;98339.78;;;9.55;90.65
77685;BME280;66844;46.092;18.268;2023-04-25T01:34:17;98347.13;;;9.51;90.24
77685;BME280;66844;46.092;18.268;2023-04-25T01:34:48;98347.84;;;9.53;90.43
77685;BME280;66844;46.092;18.268;2023-04-25T01:35:19;98347.97;;;9.52;89.90
77685;BME280;66844;46.092;18.268;2023-04-25T01:35:50;98347.13;;;9.51;90.12
77685;BME280;66844;46.092;18.268;2023-04-25T01:36:21;98339.38;;;9.48;90.10
77685;BME280;66844;46.092;18.268;2023-04-25T01:36:52;98343.50;;;9.52;89.90
77685;BME280;66844;46.092;18.268;2023-04-25T01:37:23;98345.19;;;9.53;90.22
77685;BME280;66844;46.092;18.268;2023-04-25T01:37:54;98333.94;;;9.50;90.20
77685;BME280;66844;46.092;18.268;2023-04-25T01:38:25;98346.47;;;9.48;89.94
77685;BME280;66844;46.092;18.268;2023-04-25T01:38:56;98349.00;;;9.49;90.06
77685;BME280;66844;46.092;18.268;2023-04-25T01:39:27;98335.88;;;9.48;89.72
77685;BME280;66844;46.092;18.268;2023-04-25T01:39:58;98349.75;;;9.51;89.63
77685;BME280;66844;46.092;18.268;2023-04-25T01:40:29;98348.91;;;9.51;90.04
77685;BME280;66844;46.092;18.268;2023-04-25T01:41:00;98348.06;;;9.50;89.61
77685;BME280;66844;46.092;18.268;2023-04-25T01:41:32;98345.31;;;9.52;89.64
77685;BME280;66844;46.092;18.268;2023-04-25T01:42:04;98359.53;;;9.51;89.60
77685;BME280;66844;46.092;18.268;2023-04-25T01:42:37;98356.88;;;9.51;89.48
77685;BME280;66844;46.092;18.268;2023-04-25T01:43:08;98354.00;;;9.54;89.33
77685;BME280;66844;46.092;18.268;2023-04-25T01:43:41;98352.41;;;9.51;89.45
77685;BME280;66844;46.092;18.268;2023-04-25T01:44:12;98348.06;;;9.50;89.37
77685;BME280;66844;46.092;18.268;2023-04-25T01:44:43;98344.69;;;9.48;89.73
77685;BME280;66844;46.092;18.268;2023-04-25T01:45:13;98345.53;;;9.49;89.82
77685;BME280;66844;46.092;18.268;2023-04-25T01:45:44;98340.22;;;9.49;89.13
77685;BME280;66844;46.092;18.268;2023-04-25T01:46:15;98350.72;;;9.50;88.67
77685;BME280;66844;46.092;18.268;2023-04-25T01:46:45;98349.53;;;9.54;88.54
77685;BME280;66844;46.092;18.268;2023-04-25T01:47:16;98355.59;;;9.56;88.56
77685;BME280;66844;46.092;18.268;2023-04-25T01:47:47;98354.75;;;9.56;88.65
77685;BME280;66844;46.092;18.268;2023-04-25T01:48:19;98352.41;;;9.51;88.86
77685;BME280;66844;46.092;18.268;2023-04-25T01:48:50;98355.94;;;9.52;87.82
77685;BME280;66844;46.092;18.268;2023-04-25T01:49:21;98345.19;;;9.53;88.25
77685;BME280;66844;46.092;18.268;2023-04-25T01:49:51;98353.69;;;9.58;88.24
77685;BME280;66844;46.092;18.268;2023-04-25T01:50:22;98354.63;;;9.57;89.07
77685;BME280;66844;46.092;18.268;2023-04-25T01:50:53;98358.25;;;9.56;88.77
77685;BME280;66844;46.092;18.268;2023-04-25T01:51:24;98353.78;;;9.57;88.39
77685;BME280;66844;46.092;18.268;2023-04-25T01:51:54;98342.75;;;9.50;88.32
77685;BME280;66844;46.092;18.268;2023-04-25T01:52:25;98358.44;;;9.53;87.91
77685;BME280;66844;46.092;18.268;2023-04-25T01:52:56;98348.06;;;9.50;87.91
77685;BME280;66844;46.092;18.268;2023-04-25T01:53:27;98355.94;;;9.52;88.22
77685;BME280;66844;46.092;18.268;2023-04-25T01:53:58;98351.56;;;9.51;88.35
77685;BME280;66844;46.092;18.268;2023-04-25T01:54:29;98356.66;;;9.54;87.97
77685;BME280;66844;46.092;18.268;2023-04-25T01:55:02;98340.94;;;9.51;87.55
77685;BME280;66844;46.092;18.268;2023-04-25T01:55:32;98357.50;;;9.54;87.81
77685;BME280;66844;46.092;18.268;2023-04-25T01:56:04;98359.22;;;9.55;88.22
77685;BME280;66844;46.092;18.268;2023-04-25T01:56:37;98361.97;;;9.54;88.43
77685;BME280;66844;46.092;18.268;2023-04-25T01:57:08;98356.44;;;9.57;88.07
77685;BME280;66844;46.092;18.268;2023-04-25T01:57:39;98354.75;;;9.56;87.57
77685;BME280;66844;46.092;18.268;2023-04-25T01:58:10;98357.41;;;9.56;87.36
77685;BME280;66844;46.092;18.268;2023-04-25T01:58:43;98349.44;;;9.56;87.56
77685;BME280;66844;46.092;18.268;2023-04-25T01:59:13;98354.84;;;9.54;87.61
77685;BME280;66844;46.092;18.268;2023-04-25T01:59:44;98366.22;;;9.56;87.09
77685;BME280;66844;46.092;18.268;2023-04-25T02:00:15;98353.06;;;9.55;87.32
77685;BME280;66844;46.092;18.268;2023-04-25T02:00:46;98352.19;;;9.54;86.59
77685;BME280;66844;46.092;18.268;2023-04-25T02:01:17;98357.50;;;9.54;87.03
77685;BME280;66844;46.092;18.268;2023-04-25T02:01:47;98351.34;;;9.54;87.20
77685;BME280;66844;46.092;18.268;2023-04-25T02:02:18;98353.16;;;9.53;86.93
77685;BME280;66844;46.092;18.268;2023-04-25T02:02:49;98360.16;;;9.54;86.90
77685;BME280;66844;46.092;18.268;2023-04-25T02:03:20;98358.25;;;9.56;87.52
77685;BME280;66844;46.092;18.268;2023-04-25T02:03:51;98358.34;;;9.55;87.13
77685;BME280;66844;46.092;18.268;2023-04-25T02:04:22;98359.94;;;9.57;86.99
77685;BME280;66844;46.092;18.268;2023-04-25T02:04:52;98365.25;;;9.57;87.09
77685;BME280;66844;46.092;18.268;2023-04-25T02:05:24;98357.41;;;9.56;86.47
77685;BME280;66844;46.092;18.268;2023-04-25T02:05:55;98354.00;;;9.54;87.13
77685;BME280;66844;46.092;18.268;2023-04-25T02:06:25;98339.78;;;9.55;85.34
77685;BME280;66844;46.092;18.268;2023-04-25T02:06:56;98344.00;;;9.57;85.19
77685;BME280;66844;46.092;18.268;2023-04-25T02:07:27;98357.41;;;9.56;85.90
77685;BME280;66844;46.092;18.268;2023-04-25T02:07:57;98348.47;;;9.57;86.19
77685;BME280;66844;46.092;18.268;2023-04-25T02:08:28;98359.72;;;9.60;86.27
77685;BME280;66844;46.092;18.268;2023-04-25T02:09:00;98367.03;;;9.57;86.16
77685;BME280;66844;46.092;18.268;2023-04-25T02:09:31;98357.41;;;9.56;86.55
77685;BME280;66844;46.092;18.268;2023-04-25T02:10:02;98361.00;;;9.55;86.06
77685;BME280;66844;46.092;18.268;2023-04-25T02:10:33;98351.97;;;9.57;86.08
77685;BME280;66844;46.092;18.268;2023-04-25T02:11:04;98347.63;;;9.56;85.06
77685;BME280;66844;46.092;18.268;2023-04-25T02:11:35;98349.53;;;9.54;86.06
77685;BME280;66844;46.092;18.268;2023-04-25T02:12:07;98351.25;;;9.55;85.64
77685;BME280;66844;46.092;18.268;2023-04-25T02:12:38;98357.19;;;9.59;85.23
77685;BME280;66844;46.092;18.268;2023-04-25T02:13:08;98353.16;;;9.53;85.25
77685;BME280;66844;46.092;18.268;2023-04-25T02:13:39;98356.44;;;9.57;85.73
77685;BME280;66844;46.092;18.268;2023-04-25T02:14:10;98347.50;;;9.58;85.13
77685;BME280;66844;46.092;18.268;2023-04-25T02:14:40;98353.69;;;9.58;85.32
77685;BME280;66844;46.092;18.268;2023-04-25T02:15:11;98359.84;;;9.59;85.29
77685;BME280;66844;46.092;18.268;2023-04-25T02:15:41;98360.56;;;9.61;85.62
77685;BME280;66844;46.092;18.268;2023-04-25T02:16:12;98360.06;;;9.56;85.42
77685;BME280;66844;46.092;18.268;2023-04-25T02:16:43;98351.13;;;9.57;85.04
77685;BME280;66844;46.092;18.268;2023-04-25T02:17:14;98347.63;;;9.56;84.67
77685;BME280;66844;46.092;18.268;2023-04-25T02:17:44;98327.97;;;9.59;83.99
77685;BME280;66844;46.092;18.268;2023-04-25T02:18:15;98353.56;;;9.60;83.51
77685;BME280;66844;46.092;18.268;2023-04-25T02:18:48;98358.53;;;9.64;83.60
77685;BME280;66844;46.092;18.268;2023-04-25T02:19:23;98355.06;;;9.64;84.67
77685;BME280;66844;46.092;18.268;2023-04-25T02:19:53;98357.81;;;9.62;84.80
77685;BME280;66844;46.092;18.268;2023-04-25T02:20:24;98360.56;;;9.61;84.41
77685;BME280;66844;46.092;18.268;2023-04-25T02:20:55;98353.44;;;9.61;84.67
77685;BME280;66844;46.092;18.268;2023-04-25T02:21:26;98352.41;;;9.64;84.85
77685;BME280;66844;46.092;18.268;2023-04-25T02:21:57;98358.53;;;9.64;84.05
77685;BME280;66844;46.092;18.268;2023-04-25T02:22:28;98363.75;;;9.66;84.25
77685;BME280;66844;46.092;18.268;2023-04-25T02:23:00;98361.00;;;9.67;84.59
77685;BME280;66844;46.092;18.268;2023-04-25T02:23:31;98352.91;;;9.69;85.03
77685;BME280;66844;46.092;18.268;2023-04-25T02:24:02;98361.09;;;9.66;84.49
77685;BME280;66844;46.092;18.268;2023-04-25T02:24:33;98354.84;;;9.67;84.54
77685;BME280;66844;46.092;18.268;2023-04-25T02:25:05;98354.69;;;9.68;84.82
77685;BME280;66844;46.092;18.268;2023-04-25T02:25:36;98355.56;;;9.69;85.00
77685;BME280;66844;46.092;18.268;2023-04-25T02:26:06;98354.41;;;9.60;85.04
77685;BME280;66844;46.092;18.268;2023-04-25T02:26:37;98351.66;;;9.62;83.85
77685;BME280;66844;46.092;18.268;2023-04-25T02:27:08;98361.53;;;9.60;83.90
77685;BME280;66844;46.092;18.268;2023-04-25T02:27:38;98355.06;;;9.64;83.82
77685;BME280;66844;46.092;18.268;2023-04-25T02:28:09;98360.47;;;9.62;83.75
77685;BME280;66844;46.092;18.268;2023-04-25T02:28:40;98352.72;;;9.59;84.79
77685;BME280;66844;46.092;18.268;2023-04-25T02:29:11;98352.41;;;9.64;84.10
77685;BME280;66844;46.092;18.268;2023-04-25T02:29:41;98359.38;;;9.65;84.63
77685;BME280;66844;46.092;18.268;2023-04-25T02:30:12;98339.56;;;9.58;84.62
77685;BME280;66844;46.092;18.268;2023-04-25T02:30:43;98353.69;;;9.58;84.13
77685;BME280;66844;46.092;18.268;2023-04-25T02:31:13;98356.09;;;9.61;84.20
77685;BME280;66844;46.092;18.268;2023-04-25T02:31:44;98354.41;;;9.60;83.42
77685;BME280;66844;46.092;18.268;2023-04-25T02:32:15;98347.09;;;9.64;82.35
77685;BME280;66844;46.092;18.268;2023-04-25T02:32:46;98352.91;;;9.69;82.60
77685;BME280;66844;46.092;18.268;2023-04-25T02:33:17;98357.50;;;9.67;82.83
77685;BME280;66844;46.092;18.268;2023-04-25T02:33:48;98354.06;;;9.65;83.11
77685;BME280;66844;46.092;18.268;2023-04-25T02:34:18;98354.06;;;9.65;83.47
77685;BME280;66844;46.092;18.268;2023-04-25T02:34:50;98354.22;;;9.63;83.26
77685;BME280;66844;46.092;18.268;2023-04-25T02:35:20;98353.69;;;9.58;84.04
77685;BME280;66844;46.092;18.268;2023-04-25T02:35:51;98357.06;;;9.60;83.36
77685;BME280;66844;46.092;18.268;2023-04-25T02:36:22;98352.50;;;9.62;82.15
77685;BME280;66844;46.092;18.268;2023-04-25T02:36:52;98343.47;;;9.65;82.71
77685;BME280;66844;46.092;18.268;2023-04-25T02:37:23;98354.06;;;9.65;82.28
77685;BME280;66844;46.092;18.268;2023-04-25T02:37:54;98355.78;;;9.66;82.73
77685;BME280;66844;46.092;18.268;2023-04-25T02:38:25;98351.56;;;9.63;82.08
77685;BME280;66844;46.092;18.268;2023-04-25T02:38:56;98350.56;;;9.64;82.27
77685;BME280;66844;46.092;18.268;2023-04-25T02:39:27;98352.59;;;9.61;82.46
77685;BME280;66844;46.092;18.268;2023-04-25T02:39:57;98355.59;;;9.56;83.32
77685;BME280;66844;46.092;18.268;2023-04-25T02:40:28;98356.22;;;9.60;83.35
77685;BME280;66844;46.092;18.268;2023-04-25T02:40:59;98355.47;;;9.58;83.37
77685;BME280;66844;46.092;18.268;2023-04-25T02:41:29;98353.34;;;9.63;83.44
77685;BME280;66844;46.092;18.268;2023-04-25T02:42:00;98351.66;;;9.62;82.83
77685;BME280;66844;46.092;18.268;2023-04-25T02:42:31;98351.56;;;9.63;81.53
77685;BME280;66844;46.092;18.268;2023-04-25T02:43:02;98345.16;;;9.66;81.75
77685;BME280;66844;46.092;18.268;2023-04-25T02:43:33;98355.06;;;9.64;80.86
77685;BME280;66844;46.092;18.268;2023-04-25T02:44:03;98355.78;;;9.66;81.18
77685;BME280;66844;46.092;18.268;2023-04-25T02:44:34;98352.81;;;9.70;81.29
77685;BME280;66844;46.092;18.268;2023-04-25T02:45:05;98353.97;;;9.66;82.12